עמוד ראשי
METAR-TAF:

METAR-TAF

שדות תעופה :

סיינפואגוס, קובה

קו רוחב: 22-09N, קו אורך: 080-24W, גובה: 39מטר

תצפית מזג אוויר נוכחית

הדו"ח נערך לפני 51דקות, בשעה 09:59 UTC
רוח 3קשר מכיוון מזרח
טמפרטורת 23 צלסיוס
לחות 94%
לחץ 1014 hPa

METAR: MUCF 270959Z AUTO 10003KT 23/22 Q1014

זמן: 06:50 (10:50 UTC)

תחזית

הדו"ח נערך לפני 17 שעות ו 50דקות, בשעה 17:00 UTC
תחזית בתוקף מ 26 ב 18 UTC עד 27 ב 06 UTC
רוח 9קשר מכיוון דרום/דרום-מערב
ראות: 9000מטר
עננים פזורים בגובה 2000רגל
יעשה מ
27 ב 00 UTC עד 27 ב 02 UTC
רוח 4קשר עם כיוונים משתנים

TAF: MUCF 261700Z 2618/2706 21009KT 9000 SCT020 BECMG 2700/2702 VRB04KT

תצפיות ותחזיות מזג אוויר לגבי יותר מ- 4,000 שדות תעופה ברחבי העולם. דוחות METAR ו- TAF.

התחנות הזמינות מסומנות בנקודות צהובות ואדומות על גבי המפה.

העבר את העכבר לנקודה הצבעונית על מנת לראות את שם התחנה.

לאחר מכן, לחץ כדי לראות את תוכן ואת תחזיות מזג האוויר.

כדי לשנות את המפה: לחץ על הכפתורים הירוקים עם הפלוס השחור כדי להתקרב; על הכפתור הירוק עם המקף כדי להתרחק; או בחיצים הירוקים למפות סמוכות.


METAR-TAF: